Boiceville, NY (12412)

5:45 PM EDT on September 03, 2015 (GMT -0400)
Onteora High School | | Change Station
CLOSE
Current Station
Personal Weather Station
Location: Boiceville, NY
Elevation: 659 ft
Nearby Weather Stations

Elev 659 ft 42.01 °N, 74.27 °W | Updated 17 seconds ago

Partly Cloudy
Partly Cloudy
81.2 °F
Feels Like 86 °F
N
3.0
Wind Variable Wind from South
Gusts 10.0 mph

Today
High -- | Low -- °F
--% Chance of Precip.
Yesterday
High -- | Low -- °F
Precip. -- in
6:24 AM 7:27 PM
Waning Gibbous, 66% visible
Pressure 29.82 in
Visibility 10.0 miles
Clouds Clear
Heat Index 86 °F
Dew Point 73 °F
Humidity 77%
Rainfall in
Snow Depth Not available.
UV 0.0 out of 12
Pollen 8.20 out of 12
Air Quality Not available.
Flu Activity Not available.
METAR KPOU 032053Z AUTO 36006KT 10SM CLR 33/17 A2983 RMK AO2 LTG DSNT N AND NW SLP096 T03280172 56009
Pressure 29.82 in
Visibility 10.0 miles
Clouds Clear
Heat Index 86 °F
Dew Point 73 °F
Humidity 77%
Rainfall in
Snow Depth Not available.
UV 0.0 out of 12
Pollen 8.20 out of 12
Air Quality Not available.
Flu Activity Not available.
METAR KPOU 032053Z AUTO 36006KT 10SM CLR 33/17 A2983 RMK AO2 LTG DSNT N AND NW SLP096 T03280172 56009
Nowcast | as of 5:37 PM EDT on September 3, 2015

a thunderstorm will affect southeastern Ulster County... At 535 PM EDT...a thunderstorm was over Tillson...or near New Paltz...moving southeast at 10 mph. This thunderstorms may produce winds of around 30 mph and pea size hail. Rainfall amounts of of a tenth to a quarter of an inch are also possible. Potential locations impacted include... Poughkeepsie...Kingston...New Paltz...Hurley...Highland...Tillson... Port Ewen...Kerhonkson...Lloyd...Esopus...Rosendale...Marbletown... Libertyville...Ohioville...Springtown...Jenkinstown...Highland Landing...hillside...Kyserike and Clintondale Station. Lat...Lon 4182 7431 4196 7417 4190 7396 4187 7394 4177 7395 4176 7394 4168 7394 4162 7398 time...Mot...loc 2135z 298deg 10kt 4183 7411

×

10-Day Weather Forecast

×

Almanac

Astronomy

Sep. 03, 2015 Rise Set
Actual Time
Civil Twilight
Nautical Twilight
Astronomical Twilight
Moon
Length of Visible Light
Length of Day
Tomorrow will be .
, % of the Moon is Illuminated

Today's Extremes

State Highs State Lows

Community

WunderPhotos

Upload Photos

1,852,045 photos uploaded!

WunderBlogs® & News

Nearby

Air Quality

  Air Quality AQ Index Pollutant
Not available.

Snow Depth

Station Depth Elevation

Earthquake Activity

City Distance Mag. Time & Date
Minimum magnitude displayed is 2.5.

Coastal Water Temperatures

Place Temperature

Stations

Nearby Weather Stations

Station Location Temp. Windchill Dew Point Humidity Wind Precip. Elev Updated Type